createdAt,value
2019-02-26T00:01:14.440Z,55.86
2019-02-26T00:04:36.905Z,55.66
2019-02-26T00:08:02.440Z,56.27
2019-02-26T00:11:29.011Z,56.51
2019-02-26T00:14:54.525Z,56.00
2019-02-26T00:18:19.046Z,57.00
2019-02-26T00:21:43.459Z,56.75
2019-02-26T00:25:08.487Z,56.59
2019-02-26T00:28:36.310Z,57.72
2019-02-26T00:31:59.528Z,56.93
2019-02-26T00:35:23.468Z,56.92
2019-02-26T00:38:47.794Z,57.55
2019-02-26T00:42:11.021Z,57.42
2019-02-26T00:45:36.261Z,57.80
2019-02-26T00:49:00.903Z,58.58
2019-02-26T00:52:24.951Z,58.41
2019-02-26T00:55:48.052Z,58.45
2019-02-26T00:59:12.330Z,58.64
2019-02-26T01:02:35.507Z,58.81
2019-02-26T01:05:59.310Z,59.79
2019-02-26T01:09:25.187Z,58.81
2019-02-26T01:12:48.978Z,58.78
2019-02-26T01:16:12.165Z,59.42
2019-02-26T01:19:36.901Z,59.29
2019-02-26T01:23:00.672Z,59.75
2019-02-26T01:26:27.299Z,60.20
2019-02-26T01:29:51.096Z,60.02
2019-02-26T01:33:14.213Z,59.61
2019-02-26T01:36:40.250Z,60.35
2019-02-26T01:40:07.387Z,60.82
2019-02-26T01:43:29.885Z,59.89
2019-02-26T01:46:53.789Z,60.64
2019-02-26T01:50:18.173Z,60.73
2019-02-26T01:53:42.336Z,60.62
2019-02-26T01:57:08.613Z,61.13
2019-02-26T02:00:31.874Z,61.27
2019-02-26T02:03:56.222Z,61.61
2019-02-26T02:07:21.382Z,61.54
2019-02-26T02:10:44.860Z,62.07
2019-02-26T02:14:08.627Z,61.96
2019-02-26T02:17:33.829Z,61.82
2019-02-26T02:20:58.309Z,60.49
2019-02-26T02:24:22.865Z,60.13
2019-02-26T02:27:49.684Z,61.28
2019-02-26T02:31:11.980Z,61.44
2019-02-26T02:34:36.555Z,61.75
2019-02-26T02:38:02.806Z,61.42
2019-02-26T02:41:26.037Z,62.07
2019-02-26T02:44:50.314Z,62.08
2019-02-26T02:48:14.365Z,63.05
2019-02-26T02:51:39.522Z,62.88
2019-02-26T02:55:04.558Z,62.91
2019-02-26T02:58:28.441Z,63.15
2019-02-26T03:01:52.753Z,63.27
2019-02-26T03:05:16.834Z,63.01
2019-02-26T03:08:42.216Z,63.33
2019-02-26T03:12:05.447Z,63.49
2019-02-26T03:15:30.040Z,62.84
2019-02-26T03:18:53.732Z,62.47
2019-02-26T03:22:18.897Z,62.19
2019-02-26T03:25:44.440Z,62.42
2019-02-26T03:29:07.300Z,63.31
2019-02-26T03:32:30.473Z,64.05
2019-02-26T03:35:53.774Z,64.13
2019-02-26T03:39:17.209Z,64.62
2019-02-26T03:42:41.591Z,64.10
2019-02-26T03:46:05.649Z,63.29
2019-02-26T03:49:28.931Z,64.14
2019-02-26T03:52:52.127Z,64.44
2019-02-26T03:56:18.307Z,64.71
2019-02-26T03:59:41.360Z,64.57
2019-02-26T04:03:05.926Z,65.29
2019-02-26T04:06:30.672Z,64.58
2019-02-26T04:09:55.850Z,64.99
2019-02-26T04:13:20.307Z,65.25
2019-02-26T04:16:43.775Z,65.02
2019-02-26T04:20:08.552Z,65.81
2019-02-26T04:23:33.173Z,65.65
2019-02-26T04:27:51.707Z,66.15
2019-02-26T04:31:44.545Z,66.62
2019-02-26T04:35:36.288Z,66.40
2019-02-26T04:40:05.360Z,66.63
2019-02-26T04:44:35.076Z,66.34
2019-02-26T04:48:00.549Z,66.73
2019-02-26T04:51:23.389Z,67.26
2019-02-26T04:54:46.509Z,67.17
2019-02-26T04:58:12.234Z,67.17
2019-02-26T05:01:34.951Z,67.16
2019-02-26T05:04:58.196Z,67.52
2019-02-26T05:08:21.574Z,67.39
2019-02-26T05:11:44.970Z,67.66
2019-02-26T05:15:11.630Z,67.63
2019-02-26T05:18:34.568Z,67.76
2019-02-26T05:21:59.370Z,67.79
2019-02-26T05:25:22.986Z,67.70
2019-02-26T05:28:48.946Z,68.02
2019-02-26T05:32:11.744Z,67.86
2019-02-26T05:35:37.337Z,68.40
2019-02-26T05:39:02.285Z,68.50
2019-02-26T05:42:27.480Z,68.63
2019-02-26T05:45:53.497Z,68.97
2019-02-26T05:49:19.117Z,69.21
2019-02-26T05:52:40.855Z,69.46
2019-02-26T05:56:04.558Z,69.04
2019-02-26T05:59:27.746Z,69.45
2019-02-26T06:02:51.124Z,69.32
2019-02-26T06:06:14.222Z,69.08
2019-02-26T06:09:37.695Z,69.00
2019-02-26T06:13:02.206Z,69.47
2019-02-26T06:16:27.121Z,69.66
2019-02-26T06:19:51.110Z,69.12
2019-02-26T06:23:14.215Z,68.97
2019-02-26T06:26:40.649Z,69.41
2019-02-26T06:30:07.311Z,69.56
2019-02-26T06:33:32.044Z,69.72
2019-02-26T06:37:17.790Z,70.07
2019-02-26T06:40:41.907Z,69.35
2019-02-26T06:44:46.426Z,67.69
2019-02-26T06:48:12.563Z,68.87
2019-02-26T06:51:34.515Z,69.34
2019-02-26T06:55:00.070Z,69.05
2019-02-26T06:58:25.271Z,69.80
2019-02-26T07:01:48.355Z,70.36
2019-02-26T07:05:12.455Z,68.89
2019-02-26T07:08:35.943Z,70.29
2019-02-26T07:11:59.409Z,70.10
2019-02-26T07:15:22.578Z,70.27
2019-02-26T07:18:45.716Z,70.98
2019-02-26T07:22:11.139Z,70.59
2019-02-26T07:25:36.260Z,70.37
2019-02-26T07:28:58.777Z,70.07
2019-02-26T07:32:22.756Z,69.88
2019-02-26T07:35:46.873Z,70.46
2019-02-26T07:39:13.034Z,69.40
2019-02-26T07:42:37.278Z,69.18
2019-02-26T07:46:01.491Z,69.50
2019-02-26T07:49:24.606Z,68.61
2019-02-26T07:52:49.627Z,68.42
2019-02-26T07:56:15.840Z,67.67
2019-02-26T07:59:39.829Z,67.35
2019-02-26T08:03:07.147Z,67.58
2019-02-26T08:06:31.652Z,65.60
2019-02-26T08:09:55.307Z,64.82
2019-02-26T08:13:18.746Z,64.08
2019-02-26T08:16:42.140Z,63.17
2019-02-26T08:20:08.140Z,61.82
2019-02-26T08:23:30.647Z,61.32
2019-02-26T08:26:53.774Z,60.68
2019-02-26T08:30:20.629Z,59.75
2019-02-26T08:33:42.695Z,59.50
2019-02-26T08:37:05.832Z,59.27
2019-02-26T08:40:29.133Z,59.26
2019-02-26T08:43:54.555Z,59.66
2019-02-26T08:47:19.259Z,58.15
2019-02-26T08:50:44.063Z,58.41
2019-02-26T08:54:08.251Z,57.87
2019-02-26T08:57:31.531Z,56.92
2019-02-26T09:00:54.663Z,56.51
2019-02-26T09:04:19.695Z,55.86
2019-02-26T09:07:45.595Z,54.80
2019-02-26T09:11:10.700Z,53.47
2019-02-26T09:14:37.265Z,52.22
2019-02-26T09:17:58.819Z,51.64
2019-02-26T09:21:22.877Z,51.22
2019-02-26T09:24:46.836Z,50.28
2019-02-26T09:28:11.190Z,49.66
2019-02-26T09:31:34.301Z,49.16
2019-02-26T09:34:59.153Z,48.29
2019-02-26T09:38:25.462Z,48.38
2019-02-26T09:41:48.858Z,46.89
2019-02-26T09:45:15.895Z,46.13
2019-02-26T09:48:41.092Z,44.86
2019-02-26T09:52:06.532Z,44.86
2019-02-26T09:55:29.941Z,41.78
2019-02-26T09:58:53.060Z,37.62
2019-02-26T10:02:17.362Z,32.28
2019-02-26T10:05:41.110Z,28.82
2019-02-26T10:09:08.388Z,25.91
2019-02-26T10:12:32.254Z,25.72
2019-02-26T10:15:58.627Z,24.75
2019-02-26T10:19:21.392Z,21.97
2019-02-26T10:22:44.581Z,22.79
2019-02-26T10:26:10.453Z,21.16
2019-02-26T10:29:36.677Z,21.89
2019-02-26T10:33:01.949Z,22.36
2019-02-26T10:36:24.376Z,21.50
2019-02-26T10:39:49.716Z,21.25
2019-02-26T10:43:12.590Z,20.02
2019-02-26T10:46:37.094Z,19.97
2019-02-26T10:50:00.721Z,18.47
2019-02-26T10:53:23.824Z,18.87
2019-02-26T10:56:46.945Z,19.22
2019-02-26T11:00:25.239Z,18.86
2019-02-26T11:03:49.259Z,19.67
2019-02-26T11:07:14.253Z,18.64
2019-02-26T11:10:41.405Z,19.03
2019-02-26T11:14:05.149Z,18.32
2019-02-26T11:17:28.923Z,18.03
2019-02-26T11:20:56.174Z,17.54
2019-02-26T11:24:18.298Z,17.15
2019-02-26T11:27:43.484Z,16.84
2019-02-26T11:31:08.867Z,15.69
2019-02-26T11:34:33.403Z,15.19
2019-02-26T11:37:58.063Z,14.48
2019-02-26T11:41:21.529Z,15.26
2019-02-26T11:44:44.739Z,14.54
2019-02-26T11:48:08.719Z,14.74
2019-02-26T11:51:37.019Z,14.04
2019-02-26T11:54:58.822Z,15.30
2019-02-26T11:58:24.190Z,14.12
2019-02-26T12:01:47.365Z,14.11
2019-02-26T12:05:10.808Z,13.31
2019-02-26T12:08:37.045Z,14.17
2019-02-26T12:12:00.896Z,13.49
2019-02-26T12:15:27.168Z,13.41
2019-02-26T12:18:50.440Z,14.31
2019-02-26T12:22:13.654Z,14.95
2019-02-26T12:25:36.822Z,15.86
2019-02-26T12:29:02.128Z,14.87
2019-02-26T12:32:27.499Z,14.02
2019-02-26T12:35:51.192Z,14.35
2019-02-26T12:39:16.168Z,13.73
2019-02-26T12:42:39.637Z,13.00
2019-02-26T12:46:04.709Z,12.58
2019-02-26T12:49:29.412Z,11.47
2019-02-26T12:52:53.897Z,10.43
2019-02-26T12:56:17.927Z,10.70
2019-02-26T12:59:41.149Z,10.36
2019-02-26T13:03:05.668Z,9.59
2019-02-26T13:06:29.791Z,10.05
2019-02-26T13:09:55.966Z,9.36
2019-02-26T13:13:18.023Z,9.52
2019-02-26T13:16:42.426Z,9.57
2019-02-26T13:20:11.192Z,9.95
2019-02-26T13:23:34.559Z,8.88
2019-02-26T13:26:59.698Z,8.87
2019-02-26T13:30:23.248Z,9.33
2019-02-26T13:33:46.840Z,9.37
2019-02-26T13:37:10.019Z,9.45
2019-02-26T13:40:38.544Z,8.91
2019-02-26T13:43:58.359Z,9.09
2019-02-26T13:47:21.498Z,9.28
2019-02-26T13:50:44.974Z,9.38
2019-02-26T13:54:08.076Z,9.25
2019-02-26T13:57:31.364Z,9.29
2019-02-26T14:00:54.573Z,8.29
2019-02-26T14:04:17.994Z,8.05
2019-02-26T14:07:41.486Z,9.71
2019-02-26T14:11:04.719Z,9.91
2019-02-26T14:14:27.900Z,9.84
2019-02-26T14:17:51.020Z,9.85
2019-02-26T14:21:14.167Z,9.96
2019-02-26T14:24:37.551Z,9.67
2019-02-26T14:28:00.663Z,9.40
2019-02-26T14:31:23.798Z,9.25
2019-02-26T14:34:47.206Z,9.33
2019-02-26T14:38:10.309Z,10.22
2019-02-26T14:41:33.512Z,10.58
2019-02-26T14:44:56.624Z,11.39
2019-02-26T14:48:19.819Z,10.93
2019-02-26T14:51:42.953Z,12.29
2019-02-26T14:55:06.769Z,12.22
2019-02-26T14:58:29.992Z,12.65
2019-02-26T15:01:53.099Z,13.56
2019-02-26T15:05:16.791Z,12.92
2019-02-26T15:08:41.282Z,13.41
2019-02-26T15:12:04.497Z,15.33
2019-02-26T15:15:28.723Z,14.85
2019-02-26T15:18:52.158Z,14.80
2019-02-26T15:22:15.312Z,15.25
2019-02-26T15:25:38.419Z,15.59
2019-02-26T15:29:01.722Z,14.41
2019-02-26T15:32:24.770Z,15.66
2019-02-26T15:35:47.873Z,15.53
2019-02-26T15:39:11.014Z,14.19
2019-02-26T15:42:34.227Z,14.01
2019-02-26T15:45:57.787Z,13.53
2019-02-26T15:49:22.331Z,13.41
2019-02-26T15:52:46.119Z,13.39
2019-02-26T15:56:09.613Z,12.88
2019-02-26T15:59:35.317Z,11.88
2019-02-26T16:02:59.297Z,12.10
2019-02-26T16:06:23.368Z,12.78
2019-02-26T16:09:46.496Z,12.32
2019-02-26T16:13:09.832Z,13.01
2019-02-26T16:16:32.948Z,13.67
2019-02-26T16:19:56.172Z,13.26
2019-02-26T16:23:19.390Z,15.66
2019-02-26T16:26:42.485Z,17.93
2019-02-26T16:30:11.367Z,19.40
2019-02-26T16:33:34.792Z,19.65
2019-02-26T16:36:57.917Z,21.12
2019-02-26T16:40:22.243Z,22.24
2019-02-26T16:43:47.235Z,23.50
2019-02-26T16:47:12.620Z,25.18
2019-02-26T16:50:35.787Z,27.67
2019-02-26T16:53:59.190Z,26.34
2019-02-26T16:57:22.275Z,27.48
2019-02-26T17:00:46.569Z,28.56
2019-02-26T17:04:10.644Z,29.76
2019-02-26T17:07:34.776Z,29.64
2019-02-26T17:10:58.978Z,32.06
2019-02-26T17:14:22.498Z,31.48
2019-02-26T17:17:46.619Z,32.24
2019-02-26T17:21:09.817Z,33.01
2019-02-26T17:24:33.044Z,33.36
2019-02-26T17:27:56.138Z,33.25
2019-02-26T17:31:19.355Z,33.97
2019-02-26T17:34:43.014Z,34.52
2019-02-26T17:38:06.135Z,34.78
2019-02-26T17:41:29.242Z,35.44
2019-02-26T17:44:52.379Z,36.17
2019-02-26T17:48:15.528Z,36.61
2019-02-26T17:51:38.663Z,37.25
2019-02-26T17:55:01.890Z,37.59
2019-02-26T17:58:25.263Z,37.68
2019-02-26T18:01:48.379Z,37.45
2019-02-26T18:05:11.609Z,38.02
2019-02-26T18:08:34.838Z,38.54
2019-02-26T18:11:59.735Z,39.06
2019-02-26T18:15:23.222Z,39.25
2019-02-26T18:18:46.583Z,40.13
2019-02-26T18:22:09.684Z,40.47
2019-02-26T18:25:33.556Z,40.61
2019-02-26T18:28:56.838Z,40.50
2019-02-26T18:32:19.960Z,40.86
2019-02-26T18:35:43.285Z,41.21
2019-02-26T18:39:10.394Z,41.85
2019-02-26T18:42:34.002Z,42.02
2019-02-26T18:46:00.633Z,41.90
2019-02-26T18:49:23.450Z,42.05
2019-02-26T18:52:48.298Z,42.50
2019-02-26T18:56:14.248Z,42.70
2019-02-26T18:59:37.559Z,43.70
2019-02-26T19:03:00.757Z,44.65
2019-02-26T19:06:24.704Z,44.96
2019-02-26T19:09:49.172Z,44.56
2019-02-26T19:13:12.364Z,44.38
2019-02-26T19:16:35.987Z,44.86
2019-02-26T19:19:59.386Z,44.74
2019-02-26T19:23:22.576Z,44.61
2019-02-26T19:26:47.884Z,44.64
2019-02-26T19:30:14.612Z,45.37
2019-02-26T19:33:37.844Z,45.65
2019-02-26T19:37:04.417Z,45.68
2019-02-26T19:40:38.784Z,45.45
2019-02-26T19:44:04.278Z,45.75
2019-02-26T19:47:31.173Z,45.62
2019-02-26T19:50:54.478Z,45.61
2019-02-26T19:54:18.223Z,46.73
2019-02-26T19:57:41.665Z,47.29
2019-02-26T20:01:05.733Z,48.02
2019-02-26T20:04:31.599Z,48.53
2019-02-26T20:07:54.957Z,49.00
2019-02-26T20:11:22.633Z,48.79
2019-02-26T20:14:48.822Z,48.89
2019-02-26T20:18:20.119Z,49.37
2019-02-26T20:21:37.109Z,49.51
2019-02-26T20:25:00.464Z,49.77
2019-02-26T20:28:26.496Z,51.22
2019-02-26T20:31:50.413Z,51.84
2019-02-26T20:35:15.958Z,51.34
2019-02-26T20:38:38.942Z,52.24
2019-02-26T20:42:05.093Z,52.38
2019-02-26T20:45:28.280Z,53.12
2019-02-26T20:48:51.789Z,53.52
2019-02-26T20:52:15.237Z,53.56
2019-02-26T20:55:39.636Z,53.62
2019-02-26T20:59:02.909Z,53.31
2019-02-26T21:02:26.242Z,54.27
2019-02-26T21:05:49.794Z,55.21
2019-02-26T21:09:13.520Z,54.36
2019-02-26T21:12:38.381Z,55.19
2019-02-26T21:16:02.257Z,55.20
2019-02-26T21:19:25.628Z,55.20
2019-02-26T21:22:49.787Z,55.99
2019-02-26T21:26:14.744Z,55.61
2019-02-26T21:29:38.864Z,56.67
2019-02-26T21:33:03.093Z,57.45
2019-02-26T21:36:28.005Z,56.49
2019-02-26T21:39:51.459Z,55.11
2019-02-26T21:43:14.640Z,56.75
2019-02-26T21:46:38.065Z,57.48
2019-02-26T21:50:01.770Z,57.54
2019-02-26T21:53:26.041Z,57.06
2019-02-26T21:56:49.512Z,56.38
2019-02-26T22:00:14.363Z,57.49
2019-02-26T22:03:37.806Z,57.51
2019-02-26T22:07:01.000Z,57.64
2019-02-26T22:10:24.179Z,58.65
2019-02-26T22:13:47.271Z,59.29
2019-02-26T22:17:10.416Z,59.57
2019-02-26T22:20:36.405Z,58.82
2019-02-26T22:23:58.709Z,58.67
2019-02-26T22:27:24.454Z,59.90
2019-02-26T22:30:47.604Z,59.79
2019-02-26T22:34:10.856Z,59.86
2019-02-26T22:37:34.027Z,59.50
2019-02-26T22:40:57.120Z,59.73
2019-02-26T22:44:21.589Z,60.16
2019-02-26T22:47:46.360Z,60.38
2019-02-26T22:51:09.488Z,61.25
2019-02-26T22:54:32.618Z,60.67
2019-02-26T22:57:55.896Z,61.86
2019-02-26T23:01:42.966Z,62.42
2019-02-26T23:05:06.701Z,62.10
2019-02-26T23:08:30.012Z,63.62
2019-02-26T23:11:53.462Z,64.38
2019-02-26T23:15:16.622Z,63.86
2019-02-26T23:18:40.378Z,64.72
2019-02-26T23:22:07.121Z,64.15
2019-02-26T23:25:30.651Z,63.89
2019-02-26T23:28:56.166Z,62.84
2019-02-26T23:32:21.010Z,63.69
2019-02-26T23:35:44.620Z,64.03
2019-02-26T23:39:11.315Z,62.74
2019-02-26T23:42:38.583Z,64.22
2019-02-26T23:46:01.534Z,63.12
2019-02-26T23:49:24.969Z,63.80
2019-02-26T23:52:48.385Z,63.61
2019-02-26T23:56:11.651Z,64.11
2019-02-26T23:59:37.703Z,64.42
